sensor_id;sensor_type;location;lat;lon;timestamp;pressure;altitude;pressure_sealevel;temperature;humidity
42125;BME280;27787;44.594;11.046;2023-07-13T00:01:23;100742.91;;;27.35;95.23
42125;BME280;27787;44.594;11.046;2023-07-13T00:04:08;100747.34;;;27.36;94.65
42125;BME280;27787;44.594;11.046;2023-07-13T00:06:53;100750.94;;;27.36;93.67
42125;BME280;27787;44.594;11.046;2023-07-13T00:09:37;100754.69;;;27.33;93.87
42125;BME280;27787;44.594;11.046;2023-07-13T00:12:33;100758.56;;;27.29;93.43
42125;BME280;27787;44.594;11.046;2023-07-13T00:15:25;100750.84;;;27.23;93.44
42125;BME280;27787;44.594;11.046;2023-07-13T00:18:10;100760.81;;;27.23;93.45
42125;BME280;27787;44.594;11.046;2023-07-13T00:20:54;100759.13;;;27.20;93.61
42125;BME280;27787;44.594;11.046;2023-07-13T00:23:40;100762.53;;;27.24;93.42
42125;BME280;27787;44.594;11.046;2023-07-13T00:26:25;100763.50;;;27.23;93.53
42125;BME280;27787;44.594;11.046;2023-07-13T00:29:10;100766.78;;;27.14;94.00
42125;BME280;27787;44.594;11.046;2023-07-13T00:31:54;100764.53;;;27.06;94.60
42125;BME280;27787;44.594;11.046;2023-07-13T00:34:38;100777.91;;;26.93;95.44
42125;BME280;27787;44.594;11.046;2023-07-13T00:37:23;100774.63;;;26.88;95.77
42125;BME280;27787;44.594;11.046;2023-07-13T00:40:11;100782.22;;;26.82;96.57
42125;BME280;27787;44.594;11.046;2023-07-13T00:42:58;100784.00;;;26.83;97.09
42125;BME280;27787;44.594;11.046;2023-07-13T00:48:30;100785.28;;;26.91;96.84
42125;BME280;27787;44.594;11.046;2023-07-13T00:51:20;100784.06;;;26.97;96.34
42125;BME280;27787;44.594;11.046;2023-07-13T00:54:06;100786.50;;;27.01;96.14
42125;BME280;27787;44.594;11.046;2023-07-13T00:56:53;100784.72;;;27.00;96.40
42125;BME280;27787;44.594;11.046;2023-07-13T00:59:42;100772.34;;;26.96;96.56
42125;BME280;27787;44.594;11.046;2023-07-13T01:02:28;100775.31;;;26.92;97.15
42125;BME280;27787;44.594;11.046;2023-07-13T01:05:17;100765.09;;;26.97;97.20
42125;BME280;27787;44.594;11.046;2023-07-13T01:08:03;100754.84;;;27.02;96.21
42125;BME280;27787;44.594;11.046;2023-07-13T01:10:55;100762.44;;;27.11;95.45
42125;BME280;27787;44.594;11.046;2023-07-13T01:13:40;100758.25;;;27.20;94.17
42125;BME280;27787;44.594;11.046;2023-07-13T01:16:30;100757.22;;;27.22;93.20
42125;BME280;27787;44.594;11.046;2023-07-13T01:19:36;100758.78;;;27.26;93.05
42125;BME280;27787;44.594;11.046;2023-07-13T01:22:21;100754.69;;;27.33;92.90
42125;BME280;27787;44.594;11.046;2023-07-13T01:25:10;100764.75;;;27.31;91.34
42125;BME280;27787;44.594;11.046;2023-07-13T01:27:54;100760.88;;;27.21;89.57
42125;BME280;27787;44.594;11.046;2023-07-13T01:30:39;100757.22;;;27.22;90.26
42125;BME280;27787;44.594;11.046;2023-07-13T01:33:24;100750.72;;;27.25;90.06
42125;BME280;27787;44.594;11.046;2023-07-13T01:36:10;100747.44;;;27.34;89.90
42125;BME280;27787;44.594;11.046;2023-07-13T01:38:55;100761.47;;;27.41;89.74
42125;BME280;27787;44.594;11.046;2023-07-13T01:41:39;100751.09;;;27.47;89.79
42125;BME280;27787;44.594;11.046;2023-07-13T01:44:23;100737.28;;;27.52;89.54
42125;BME280;27787;44.594;11.046;2023-07-13T01:47:07;100720.03;;;27.53;89.73
42125;BME280;27787;44.594;11.046;2023-07-13T01:49:52;100717.31;;;27.53;89.85
42125;BME280;27787;44.594;11.046;2023-07-13T01:52:36;100713.06;;;27.49;89.26
42125;BME280;27787;44.594;11.046;2023-07-13T01:55:20;100719.47;;;27.48;89.09
42125;BME280;27787;44.594;11.046;2023-07-13T01:58:05;100709.50;;;27.48;88.22
42125;BME280;27787;44.594;11.046;2023-07-13T02:00:51;100724.69;;;27.51;87.85
42125;BME280;27787;44.594;11.046;2023-07-13T02:03:36;100718.19;;;27.53;87.22
42125;BME280;27787;44.594;11.046;2023-07-13T02:06:20;100717.31;;;27.53;87.68
42125;BME280;27787;44.594;11.046;2023-07-13T02:09:05;100710.25;;;27.50;88.41
42125;BME280;27787;44.594;11.046;2023-07-13T02:11:50;100706.84;;;27.47;88.06
42125;BME280;27787;44.594;11.046;2023-07-13T02:14:34;100709.88;;;27.42;87.25
42125;BME280;27787;44.594;11.046;2023-07-13T02:17:18;100711.16;;;27.37;86.44
42125;BME280;27787;44.594;11.046;2023-07-13T02:20:04;100710.38;;;27.35;84.93
42125;BME280;27787;44.594;11.046;2023-07-13T02:22:49;100697.19;;;27.28;84.13
42125;BME280;27787;44.594;11.046;2023-07-13T02:25:33;100709.31;;;27.23;84.00
42125;BME280;27787;44.594;11.046;2023-07-13T02:28:18;100711.41;;;27.18;82.99
42125;BME280;27787;44.594;11.046;2023-07-13T02:31:10;100712.69;;;27.12;82.07
42125;BME280;27787;44.594;11.046;2023-07-13T02:33:55;100706.50;;;27.10;82.49
42125;BME280;27787;44.594;11.046;2023-07-13T02:36:39;100718.47;;;27.06;81.51
42125;BME280;27787;44.594;11.046;2023-07-13T02:39:23;100722.13;;;27.05;80.48
42125;BME280;27787;44.594;11.046;2023-07-13T02:42:07;100719.22;;;27.08;79.91
42125;BME280;27787;44.594;11.046;2023-07-13T02:44:52;100718.28;;;27.09;80.46
42125;BME280;27787;44.594;11.046;2023-07-13T02:47:36;100709.97;;;27.12;78.93
42125;BME280;27787;44.594;11.046;2023-07-13T02:50:21;100711.50;;;27.16;78.83
42125;BME280;27787;44.594;11.046;2023-07-13T02:53:05;100717.50;;;27.21;78.54
42125;BME280;27787;44.594;11.046;2023-07-13T02:55:49;100714.72;;;27.23;78.60
42125;BME280;27787;44.594;11.046;2023-07-13T02:58:33;100708.44;;;27.22;79.26
42125;BME280;27787;44.594;11.046;2023-07-13T03:01:19;100723.44;;;27.28;79.13
42125;BME280;27787;44.594;11.046;2023-07-13T03:04:05;100721.69;;;27.27;79.61
42125;BME280;27787;44.594;11.046;2023-07-13T03:06:52;100731.84;;;27.23;79.47
42125;BME280;27787;44.594;11.046;2023-07-13T03:09:36;100718.09;;;27.12;80.14
42125;BME280;27787;44.594;11.046;2023-07-13T03:12:24;100720.34;;;26.90;81.46
42125;BME280;27787;44.594;11.046;2023-07-13T03:15:09;100721.88;;;26.80;82.26
42125;BME280;27787;44.594;11.046;2023-07-13T03:17:58;100719.16;;;26.80;82.65
42125;BME280;27787;44.594;11.046;2023-07-13T03:20:43;100714.34;;;26.85;82.08
42125;BME280;27787;44.594;11.046;2023-07-13T03:23:28;100713.09;;;26.90;81.47
42125;BME280;27787;44.594;11.046;2023-07-13T03:26:16;100709.41;;;26.91;82.28
42125;BME280;27787;44.594;11.046;2023-07-13T03:29:01;100702.94;;;26.94;82.21
42125;BME280;27787;44.594;11.046;2023-07-13T03:31:45;100703.91;;;26.93;82.79
42125;BME280;27787;44.594;11.046;2023-07-13T03:34:30;100714.81;;;26.91;82.21
42125;BME280;27787;44.594;11.046;2023-07-13T03:37:14;100717.63;;;26.90;82.19
42125;BME280;27787;44.594;11.046;2023-07-13T03:39:58;100702.44;;;26.87;82.28
42125;BME280;27787;44.594;11.046;2023-07-13T03:42:44;100691.00;;;26.82;82.37
42125;BME280;27787;44.594;11.046;2023-07-13T03:45:31;100689.25;;;26.81;82.51
42125;BME280;27787;44.594;11.046;2023-07-13T03:48:15;100683.78;;;26.83;82.54
42125;BME280;27787;44.594;11.046;2023-07-13T03:50:59;100692.06;;;26.80;82.80
42125;BME280;27787;44.594;11.046;2023-07-13T03:53:46;100701.16;;;26.79;83.10
42125;BME280;27787;44.594;11.046;2023-07-13T03:56:33;100709.28;;;26.79;83.06
42125;BME280;27787;44.594;11.046;2023-07-13T03:59:19;100718.03;;;26.84;81.82
42125;BME280;27787;44.594;11.046;2023-07-13T04:02:04;100726.72;;;26.89;81.25
42125;BME280;27787;44.594;11.046;2023-07-13T04:04:50;100725.66;;;26.91;81.14
42125;BME280;27787;44.594;11.046;2023-07-13T04:07:35;100708.53;;;26.91;81.64
42125;BME280;27787;44.594;11.046;2023-07-13T04:10:19;100704.00;;;26.91;81.21
42125;BME280;27787;44.594;11.046;2023-07-13T04:13:04;100708.63;;;26.89;81.33
42125;BME280;27787;44.594;11.046;2023-07-13T04:15:48;100713.97;;;26.91;81.35
42125;BME280;27787;44.594;11.046;2023-07-13T04:18:33;100723.81;;;26.92;81.53
42125;BME280;27787;44.594;11.046;2023-07-13T04:21:17;100720.91;;;26.95;81.61
42125;BME280;27787;44.594;11.046;2023-07-13T04:24:02;100737.38;;;26.92;82.56
42125;BME280;27787;44.594;11.046;2023-07-13T04:26:47;100724.69;;;26.92;82.93
42125;BME280;27787;44.594;11.046;2023-07-13T04:29:32;100723.94;;;26.90;83.10
42125;BME280;27787;44.594;11.046;2023-07-13T04:32:16;100723.06;;;26.90;83.34
42125;BME280;27787;44.594;11.046;2023-07-13T04:35:00;100729.44;;;26.89;83.56
42125;BME280;27787;44.594;11.046;2023-07-13T04:37:45;100744.50;;;26.79;83.88
42125;BME280;27787;44.594;11.046;2023-07-13T04:40:29;100753.47;;;26.65;84.51
42125;BME280;27787;44.594;11.046;2023-07-13T04:43:14;100754.00;;;26.56;85.06
42125;BME280;27787;44.594;11.046;2023-07-13T04:46:10;100747.31;;;26.47;84.86
42125;BME280;27787;44.594;11.046;2023-07-13T04:48:54;100770.19;;;26.41;85.99
42125;BME280;27787;44.594;11.046;2023-07-13T04:51:39;100764.22;;;26.35;86.54
42125;BME280;27787;44.594;11.046;2023-07-13T04:54:23;100743.09;;;26.26;88.02
42125;BME280;27787;44.594;11.046;2023-07-13T04:57:08;100749.13;;;26.15;88.94
42125;BME280;27787;44.594;11.046;2023-07-13T04:59:53;100779.53;;;26.04;90.30
42125;BME280;27787;44.594;11.046;2023-07-13T05:02:38;100776.38;;;25.96;91.46
42125;BME280;27787;44.594;11.046;2023-07-13T05:05:23;100767.91;;;25.86;92.34
42125;BME280;27787;44.594;11.046;2023-07-13T05:08:08;100762.59;;;25.85;92.67
42125;BME280;27787;44.594;11.046;2023-07-13T05:10:52;100764.06;;;25.91;91.72
42125;BME280;27787;44.594;11.046;2023-07-13T05:13:36;100764.94;;;25.91;91.25
42125;BME280;27787;44.594;11.046;2023-07-13T05:16:21;100763.38;;;25.87;90.77
42125;BME280;27787;44.594;11.046;2023-07-13T05:19:05;100775.22;;;25.84;90.88
42125;BME280;27787;44.594;11.046;2023-07-13T05:21:49;100769.47;;;25.75;90.26
42125;BME280;27787;44.594;11.046;2023-07-13T05:24:32;100773.28;;;25.71;89.59
42125;BME280;27787;44.594;11.046;2023-07-13T05:27:17;100777.09;;;25.67;88.84
42125;BME280;27787;44.594;11.046;2023-07-13T05:30:03;100761.19;;;25.61;87.20
42125;BME280;27787;44.594;11.046;2023-07-13T05:32:47;100753.59;;;25.51;85.99
42125;BME280;27787;44.594;11.046;2023-07-13T05:35:31;100758.47;;;25.45;85.54
42125;BME280;27787;44.594;11.046;2023-07-13T05:38:15;100762.75;;;25.49;84.02
42125;BME280;27787;44.594;11.046;2023-07-13T05:41:00;100763.00;;;25.44;84.42
42125;BME280;27787;44.594;11.046;2023-07-13T05:43:44;100783.06;;;25.40;84.38
42125;BME280;27787;44.594;11.046;2023-07-13T05:46:29;100801.91;;;25.42;83.04
42125;BME280;27787;44.594;11.046;2023-07-13T05:49:13;100796.50;;;25.42;82.33
42125;BME280;27787;44.594;11.046;2023-07-13T05:51:58;100793.06;;;25.38;82.45
42125;BME280;27787;44.594;11.046;2023-07-13T05:54:42;100779.78;;;25.34;82.13
42125;BME280;27787;44.594;11.046;2023-07-13T05:57:26;100788.00;;;25.32;81.39
42125;BME280;27787;44.594;11.046;2023-07-13T06:00:11;100802.63;;;25.28;81.03
42125;BME280;27787;44.594;11.046;2023-07-13T06:02:59;100809.69;;;25.31;80.84
42125;BME280;27787;44.594;11.046;2023-07-13T06:05:43;100809.00;;;25.27;79.58
42125;BME280;27787;44.594;11.046;2023-07-13T06:08:27;100815.28;;;25.27;79.42
42125;BME280;27787;44.594;11.046;2023-07-13T06:11:20;100804.38;;;25.29;77.43
42125;BME280;27787;44.594;11.046;2023-07-13T06:14:05;100806.22;;;25.28;77.11
42125;BME280;27787;44.594;11.046;2023-07-13T06:16:49;100811.44;;;25.32;77.04
42125;BME280;27787;44.594;11.046;2023-07-13T06:19:34;100811.53;;;25.30;78.08
42125;BME280;27787;44.594;11.046;2023-07-13T06:22:18;100803.38;;;25.47;77.67
42125;BME280;27787;44.594;11.046;2023-07-13T06:25:02;100790.16;;;25.58;76.04
42125;BME280;27787;44.594;11.046;2023-07-13T06:27:46;100785.28;;;25.65;75.47
42125;BME280;27787;44.594;11.046;2023-07-13T06:30:30;100792.50;;;25.65;74.75
42125;BME280;27787;44.594;11.046;2023-07-13T06:33:15;100801.44;;;25.67;74.19
42125;BME280;27787;44.594;11.046;2023-07-13T06:36:04;100790.94;;;25.61;73.73
42125;BME280;27787;44.594;11.046;2023-07-13T06:38:49;100793.03;;;25.55;74.42
42125;BME280;27787;44.594;11.046;2023-07-13T06:41:33;100795.94;;;25.68;74.46
42125;BME280;27787;44.594;11.046;2023-07-13T06:44:18;100802.63;;;25.78;73.21
42125;BME280;27787;44.594;11.046;2023-07-13T06:47:02;100818.78;;;25.80;72.98
42125;BME280;27787;44.594;11.046;2023-07-13T06:49:46;100832.38;;;25.78;72.38
42125;BME280;27787;44.594;11.046;2023-07-13T06:52:31;100825.28;;;25.76;72.55
42125;BME280;27787;44.594;11.046;2023-07-13T06:55:15;100804.13;;;25.84;72.72
42125;BME280;27787;44.594;11.046;2023-07-13T06:57:59;100797.56;;;26.04;72.73
42125;BME280;27787;44.594;11.046;2023-07-13T07:00:44;100812.78;;;26.22;72.44
42125;BME280;27787;44.594;11.046;2023-07-13T07:03:28;100822.69;;;26.39;72.88
42125;BME280;27787;44.594;11.046;2023-07-13T07:06:22;100817.16;;;26.56;72.58
42125;BME280;27787;44.594;11.046;2023-07-13T07:09:09;100793.13;;;26.66;71.94
42125;BME280;27787;44.594;11.046;2023-07-13T07:11:53;100820.63;;;26.74;71.71
42125;BME280;27787;44.594;11.046;2023-07-13T07:14:37;100836.88;;;26.74;72.83
42125;BME280;27787;44.594;11.046;2023-07-13T07:17:21;100816.28;;;26.71;72.63
42125;BME280;27787;44.594;11.046;2023-07-13T07:20:06;100800.19;;;26.68;72.23
42125;BME280;27787;44.594;11.046;2023-07-13T07:22:50;100793.81;;;26.69;72.11
42125;BME280;27787;44.594;11.046;2023-07-13T07:25:35;100789.34;;;26.68;72.14
42125;BME280;27787;44.594;11.046;2023-07-13T07:28:21;100777.47;;;26.71;72.38
42125;BME280;27787;44.594;11.046;2023-07-13T07:31:05;100777.56;;;26.69;72.15
42125;BME280;27787;44.594;11.046;2023-07-13T07:33:49;100777.72;;;26.66;73.17
42125;BME280;27787;44.594;11.046;2023-07-13T07:36:36;100809.13;;;26.70;73.83
42125;BME280;27787;44.594;11.046;2023-07-13T07:39:20;100825.53;;;26.67;73.76
42125;BME280;27787;44.594;11.046;2023-07-13T07:42:05;100813.13;;;26.63;73.73
42125;BME280;27787;44.594;11.046;2023-07-13T07:44:49;100813.13;;;26.63;73.68
42125;BME280;27787;44.594;11.046;2023-07-13T07:47:33;100824.16;;;26.60;74.12
42125;BME280;27787;44.594;11.046;2023-07-13T07:50:17;100808.25;;;26.54;76.63
42125;BME280;27787;44.594;11.046;2023-07-13T07:53:04;100791.84;;;26.41;77.75
42125;BME280;27787;44.594;11.046;2023-07-13T07:55:50;100781.72;;;26.45;79.56
42125;BME280;27787;44.594;11.046;2023-07-13T07:58:35;100786.50;;;26.56;80.70
42125;BME280;27787;44.594;11.046;2023-07-13T08:01:20;100791.66;;;26.60;80.26
42125;BME280;27787;44.594;11.046;2023-07-13T08:04:04;100771.25;;;26.69;79.56
42125;BME280;27787;44.594;11.046;2023-07-13T08:06:48;100745.66;;;26.74;79.54
42125;BME280;27787;44.594;11.046;2023-07-13T08:09:32;100751.19;;;26.73;79.08
42125;BME280;27787;44.594;11.046;2023-07-13T08:12:17;100765.34;;;26.62;79.08
42125;BME280;27787;44.594;11.046;2023-07-13T08:15:01;100767.28;;;26.60;79.16
42125;BME280;27787;44.594;11.046;2023-07-13T08:17:49;100754.81;;;26.58;79.54
42125;BME280;27787;44.594;11.046;2023-07-13T08:20:37;100752.00;;;26.59;79.22
42125;BME280;27787;44.594;11.046;2023-07-13T08:23:22;100735.31;;;26.51;80.22
42125;BME280;27787;44.594;11.046;2023-07-13T08:26:08;100754.38;;;26.34;80.48
42125;BME280;27787;44.594;11.046;2023-07-13T08:28:52;100782.06;;;26.23;81.40
42125;BME280;27787;44.594;11.046;2023-07-13T08:31:36;100776.09;;;26.16;81.33
42125;BME280;27787;44.594;11.046;2023-07-13T08:34:20;100765.81;;;26.07;82.59
42125;BME280;27787;44.594;11.046;2023-07-13T08:37:04;100756.56;;;26.11;82.46
42125;BME280;27787;44.594;11.046;2023-07-13T08:39:49;100768.78;;;26.19;81.97
42125;BME280;27787;44.594;11.046;2023-07-13T08:42:39;100820.53;;;26.28;81.79
42125;BME280;27787;44.594;11.046;2023-07-13T08:48:26;100801.34;;;26.33;81.29
42125;BME280;27787;44.594;11.046;2023-07-13T08:54:36;100834.84;;;26.14;82.17
42125;BME280;27787;44.594;11.046;2023-07-13T08:57:29;100837.75;;;26.11;82.47
42125;BME280;27787;44.594;11.046;2023-07-13T09:00:15;100864.28;;;26.05;82.42
42125;BME280;27787;44.594;11.046;2023-07-13T09:03:00;100869.03;;;25.84;84.53
42125;BME280;27787;44.594;11.046;2023-07-13T09:05:50;100880.97;;;25.63;86.70
42125;BME280;27787;44.594;11.046;2023-07-13T09:12:23;100890.53;;;25.52;88.79
42125;BME280;27787;44.594;11.046;2023-07-13T09:15:30;100858.25;;;25.32;89.98
42125;BME280;27787;44.594;11.046;2023-07-13T09:18:34;100813.44;;;25.28;91.33
42125;BME280;27787;44.594;11.046;2023-07-13T09:21:25;100766.91;;;25.39;92.00
42125;BME280;27787;44.594;11.046;2023-07-13T09:27:14;100750.22;;;25.64;93.44
42125;BME280;27787;44.594;11.046;2023-07-13T09:30:20;100786.97;;;25.68;94.06
42125;BME280;27787;44.594;11.046;2023-07-13T09:33:08;100874.38;;;25.68;93.66
42125;BME280;27787;44.594;11.046;2023-07-13T09:35:52;100898.88;;;25.48;95.15
42125;BME280;27787;44.594;11.046;2023-07-13T09:38:36;100876.94;;;25.19;96.14
42125;BME280;27787;44.594;11.046;2023-07-13T09:41:26;100856.53;;;24.95;97.84
42125;BME280;27787;44.594;11.046;2023-07-13T09:44:16;100873.34;;;24.83;98.63
42125;BME280;27787;44.594;11.046;2023-07-13T09:47:00;100889.97;;;24.75;100.00
42125;BME280;27787;44.594;11.046;2023-07-13T09:49:47;100902.22;;;24.63;100.00
42125;BME280;27787;44.594;11.046;2023-07-13T09:52:49;100883.53;;;24.59;100.00
42125;BME280;27787;44.594;11.046;2023-07-13T09:55:37;100873.84;;;24.55;100.00
42125;BME280;27787;44.594;11.046;2023-07-13T09:58:25;100896.84;;;24.45;99.02
42125;BME280;27787;44.594;11.046;2023-07-13T10:01:11;100893.66;;;24.36;96.36
42125;BME280;27787;44.594;11.046;2023-07-13T10:03:56;100915.63;;;24.27;96.83
42125;BME280;27787;44.594;11.046;2023-07-13T10:06:40;100918.88;;;24.15;97.58
42125;BME280;27787;44.594;11.046;2023-07-13T10:09:27;100913.41;;;24.17;97.30
42125;BME280;27787;44.594;11.046;2023-07-13T10:12:14;100909.56;;;24.22;98.75
42125;BME280;27787;44.594;11.046;2023-07-13T10:15:00;100901.78;;;24.35;99.23
42125;BME280;27787;44.594;11.046;2023-07-13T10:17:45;100910.69;;;24.56;98.60
42125;BME280;27787;44.594;11.046;2023-07-13T10:20:30;100898.25;;;24.70;98.86
42125;BME280;27787;44.594;11.046;2023-07-13T10:23:21;100915.78;;;24.81;98.24
42125;BME280;27787;44.594;11.046;2023-07-13T10:26:16;100911.25;;;24.81;98.24
42125;BME280;27787;44.594;11.046;2023-07-13T10:29:12;100900.00;;;24.90;97.89
42125;BME280;27787;44.594;11.046;2023-07-13T10:31:58;100910.31;;;24.99;97.56
42125;BME280;27787;44.594;11.046;2023-07-13T10:34:46;100905.44;;;25.08;95.45
42125;BME280;27787;44.594;11.046;2023-07-13T10:37:42;100904.41;;;25.10;95.53
42125;BME280;27787;44.594;11.046;2023-07-13T10:40:34;100912.31;;;25.15;94.77
42125;BME280;27787;44.594;11.046;2023-07-13T10:43:43;100896.63;;;25.21;96.21
42125;BME280;27787;44.594;11.046;2023-07-13T10:46:28;100899.59;;;25.34;96.10
42125;BME280;27787;44.594;11.046;2023-07-13T10:49:14;100898.88;;;25.48;92.55
42125;BME280;27787;44.594;11.046;2023-07-13T10:51:59;100904.75;;;25.56;91.47
42125;BME280;27787;44.594;11.046;2023-07-13T10:54:45;100903.97;;;25.71;90.91
42125;BME280;27787;44.594;11.046;2023-07-13T10:57:29;100890.88;;;25.97;90.67
42125;BME280;27787;44.594;11.046;2023-07-13T11:00:16;100880.88;;;26.30;90.16
42125;BME280;27787;44.594;11.046;2023-07-13T11:03:02;100883.28;;;26.52;88.38
42125;BME280;27787;44.594;11.046;2023-07-13T11:05:49;100865.91;;;26.72;86.98
42125;BME280;27787;44.594;11.046;2023-07-13T11:08:52;100857.66;;;26.89;86.13
42125;BME280;27787;44.594;11.046;2023-07-13T11:11:38;100856.41;;;26.95;85.96
42125;BME280;27787;44.594;11.046;2023-07-13T11:14:37;100854.16;;;27.03;85.47
42125;BME280;27787;44.594;11.046;2023-07-13T11:17:50;100847.50;;;27.09;84.43
42125;BME280;27787;44.594;11.046;2023-07-13T11:20:38;100837.44;;;27.11;84.50
42125;BME280;27787;44.594;11.046;2023-07-13T11:23:28;100841.63;;;27.16;84.78
42125;BME280;27787;44.594;11.046;2023-07-13T11:29:37;100838.41;;;27.10;80.88
42125;BME280;27787;44.594;11.046;2023-07-13T11:32:25;100828.59;;;27.07;82.83
42125;BME280;27787;44.594;11.046;2023-07-13T11:35:20;100834.53;;;27.14;84.83
42125;BME280;27787;44.594;11.046;2023-07-13T11:38:17;100829.03;;;27.15;83.51
42125;BME280;27787;44.594;11.046;2023-07-13T11:41:05;100826.84;;;27.22;84.57
42125;BME280;27787;44.594;11.046;2023-07-13T11:44:05;100828.38;;;27.26;83.15
42125;BME280;27787;44.594;11.046;2023-07-13T11:47:07;100831.56;;;27.32;83.04
42125;BME280;27787;44.594;11.046;2023-07-13T11:49:54;100835.97;;;27.35;82.22
42125;BME280;27787;44.594;11.046;2023-07-13T11:52:40;100831.78;;;27.44;82.70
42125;BME280;27787;44.594;11.046;2023-07-13T11:55:24;100820.38;;;27.53;82.77
42125;BME280;27787;44.594;11.046;2023-07-13T11:58:09;100819.81;;;27.62;82.47
42125;BME280;27787;44.594;11.046;2023-07-13T12:00:57;100814.69;;;27.72;81.58
42125;BME280;27787;44.594;11.046;2023-07-13T12:03:42;100816.94;;;27.79;82.03
42125;BME280;27787;44.594;11.046;2023-07-13T12:06:30;100812.84;;;27.86;81.19
42125;BME280;27787;44.594;11.046;2023-07-13T12:09:15;100813.44;;;27.91;82.26
42125;BME280;27787;44.594;11.046;2023-07-13T12:12:02;100808.88;;;27.92;81.08
42125;BME280;27787;44.594;11.046;2023-07-13T12:14:51;100801.81;;;27.89;78.61
42125;BME280;27787;44.594;11.046;2023-07-13T12:17:35;100795.31;;;27.92;78.99
42125;BME280;27787;44.594;11.046;2023-07-13T12:23:21;100789.19;;;28.03;79.65
42125;BME280;27787;44.594;11.046;2023-07-13T12:26:09;100789.09;;;28.04;79.33
42125;BME280;27787;44.594;11.046;2023-07-13T12:28:55;100787.81;;;28.10;80.16
42125;BME280;27787;44.594;11.046;2023-07-13T12:31:43;100780.25;;;28.15;80.00
42125;BME280;27787;44.594;11.046;2023-07-13T12:34:28;100773.97;;;28.14;78.42
42125;BME280;27787;44.594;11.046;2023-07-13T12:37:12;100771.91;;;28.18;78.88
42125;BME280;27787;44.594;11.046;2023-07-13T12:39:57;100766.91;;;28.25;78.07
42125;BME280;27787;44.594;11.046;2023-07-13T12:42:42;100770.50;;;28.25;77.15
42125;BME280;27787;44.594;11.046;2023-07-13T12:45:27;100771.38;;;28.26;77.32
42125;BME280;27787;44.594;11.046;2023-07-13T12:48:16;100761.13;;;28.31;77.20
42125;BME280;27787;44.594;11.046;2023-07-13T12:51:01;100763.44;;;28.37;77.51
42125;BME280;27787;44.594;11.046;2023-07-13T12:53:50;100756.84;;;28.41;76.64
42125;BME280;27787;44.594;11.046;2023-07-13T12:56:37;100756.53;;;28.45;76.85
42125;BME280;27787;44.594;11.046;2023-07-13T12:59:22;100747.00;;;28.53;76.27
42125;BME280;27787;44.594;11.046;2023-07-13T13:02:29;100745.38;;;28.63;75.17
42125;BME280;27787;44.594;11.046;2023-07-13T13:05:14;100747.69;;;28.69;75.50
42125;BME280;27787;44.594;11.046;2023-07-13T13:07:58;100746.97;;;28.79;75.51
42125;BME280;27787;44.594;11.046;2023-07-13T13:10:43;100743.72;;;28.87;74.17
42125;BME280;27787;44.594;11.046;2023-07-13T13:13:26;100745.91;;;28.95;72.72
42125;BME280;27787;44.594;11.046;2023-07-13T13:21:58;100730.69;;;28.92;68.16
42125;BME280;27787;44.594;11.046;2023-07-13T13:24:43;100721.34;;;28.96;68.51
42125;BME280;27787;44.594;11.046;2023-07-13T13:27:27;100722.88;;;29.00;67.33
42125;BME280;27787;44.594;11.046;2023-07-13T13:30:16;100711.25;;;29.11;67.92
42125;BME280;27787;44.594;11.046;2023-07-13T13:33:00;100716.91;;;29.21;68.55
42125;BME280;27787;44.594;11.046;2023-07-13T13:35:45;100706.13;;;29.19;68.65
42125;BME280;27787;44.594;11.046;2023-07-13T13:38:29;100689.94;;;29.30;69.17
42125;BME280;27787;44.594;11.046;2023-07-13T13:41:14;100698.28;;;29.40;68.45
42125;BME280;27787;44.594;11.046;2023-07-13T13:43:58;100694.81;;;29.51;68.44
42125;BME280;27787;44.594;11.046;2023-07-13T13:46:45;100679.31;;;29.64;68.66
42125;BME280;27787;44.594;11.046;2023-07-13T13:49:31;100679.06;;;29.80;68.85
42125;BME280;27787;44.594;11.046;2023-07-13T13:52:15;100671.09;;;29.89;67.79
42125;BME280;27787;44.594;11.046;2023-07-13T13:55:00;100669.41;;;30.00;66.89
42125;BME280;27787;44.594;11.046;2023-07-13T13:57:48;100679.75;;;30.07;66.93
42125;BME280;27787;44.594;11.046;2023-07-13T14:00:32;100670.50;;;30.10;66.11
42125;BME280;27787;44.594;11.046;2023-07-13T14:03:18;100672.63;;;30.17;65.94
42125;BME280;27787;44.594;11.046;2023-07-13T14:06:03;100675.00;;;30.22;63.92
42125;BME280;27787;44.594;11.046;2023-07-13T14:08:48;100679.00;;;30.29;61.54
42125;BME280;27787;44.594;11.046;2023-07-13T14:11:32;100682.69;;;30.28;61.09
42125;BME280;27787;44.594;11.046;2023-07-13T14:14:20;100677.19;;;30.41;61.96
42125;BME280;27787;44.594;11.046;2023-07-13T14:17:04;100681.94;;;30.50;60.77
42125;BME280;27787;44.594;11.046;2023-07-13T14:19:52;100684.50;;;30.64;61.45
42125;BME280;27787;44.594;11.046;2023-07-13T14:22:40;100689.72;;;30.78;61.13
42125;BME280;27787;44.594;11.046;2023-07-13T14:25:28;100692.81;;;30.85;56.50
42125;BME280;27787;44.594;11.046;2023-07-13T14:28:26;100712.25;;;30.69;56.75
42125;BME280;27787;44.594;11.046;2023-07-13T14:31:13;100716.63;;;30.59;56.87
42125;BME280;27787;44.594;11.046;2023-07-13T14:33:58;100713.09;;;30.35;57.86
42125;BME280;27787;44.594;11.046;2023-07-13T14:36:43;100709.25;;;30.13;59.77
42125;BME280;27787;44.594;11.046;2023-07-13T14:39:29;100703.06;;;29.99;60.44
42125;BME280;27787;44.594;11.046;2023-07-13T14:42:14;100705.72;;;29.87;61.28
42125;BME280;27787;44.594;11.046;2023-07-13T14:44:58;100704.22;;;29.83;61.76
42125;BME280;27787;44.594;11.046;2023-07-13T14:47:42;100693.34;;;29.83;62.70